• Join FlightAware (Why Join?)
  • Login
  • US Flag 
01:03AM EDT


 

Airport Tracker/Info


-or-


 

Live Flight TrackerFlight Track Log ✈ ABX921 ✈ 26-Apr-2013 ✈ MMMY / MTY - KHRL

Flight Track Log - Related Links

Times and Time Zones

All times are in EDT time to prevent confusion due to time zone crossing. See the ABX921 flight status page for this flight to view local times or setup timezone preferences in your user account.

Time Position Orientation Groundspeed Altitude Reporting Facility
EDT Latitude Longitude Course Direction KTS MPH feet Rate Location/Type
09:37PM 25.9111 -98.9919 82° East 429 494 17,000  Level Houston Center
09:38PM 25.9278 -98.8628 82° East 428 493 16,900 -540 Descending Houston Center
09:39PM 25.9483 -98.7083 82° East 422 486 16,000 -480 Descending Houston Center
09:40PM 25.9653 -98.5828 81° East 413 475 16,000 -780 Level Houston Center
09:41PM 25.9803 -98.4658 82° East 381 438 14,500 -1,980 Descending Houston Center
09:42PM 25.9958 -98.3444 82° East 369 425 12,000 -2,040 Descending Houston Center
09:43PM 26.0094 -98.2367 82° East 356 410 10,400 -1,080 Descending Houston Center
09:44PM 26.0411 -98.1489 68° East 303 349 9,900 -1,020 Descending Houston Center
09:45PM 26.0844 -98.0942 49° Northeast 267 307 8,600 -1,740 Descending Houston Center
09:46PM 26.1408 -98.0308 45° Northeast 285 328 6,800 -1,260 Descending Houston Center
09:47PM 26.2011 -97.9647 45° Northeast 288 331 6,000 -420 Descending Houston Center
09:48PM 26.2556 -97.9039 45° Northeast 279 321 6,000 -120 Level Houston Center
09:49PM 26.3178 -97.8372 44° Northeast 266 306 5,800 -1,200 Descending Houston Center
09:50PM 26.3703 -97.7833 43° Northeast 252 290 3,500 -1,680 Descending Houston Center
09:51PM 26.4111 -97.7267 51° Northeast 238 274 2,400 -900 Descending Houston Center
09:52PM 26.4000 -97.6731 103° East 187 215 1,700 -420 Descending Houston Center
09:53PM 26.3622 -97.6567 159° South 150 173 1,600 -60 Descending Houston Center
09:54PM 26.3206 -97.6572 181° South 145 167 1,600 -360 Level Houston Center
09:55PM 26.2844 -97.6583 182° South 132 152 900 -660 Descending Houston Center
09:56PM 26.2481 -97.6597 182° South 114 131 300 -600 Descending Houston Center